Time;durP1;ratioP1;P1;durP2;ratioP2;P2;SDS_P1;SDS_P2;PMS_P1;PMS_P2;Temp;Humidity;BMP_temperature;BMP_pressure;BME280_temperature;BME280_humidity;BME280_pressure;Samples;Min_cycle;Max_cycle;Signal;HPM_P1;HPM_P2
2021/10/13 00:01:51;;;;;;;9.30;2.75;;;;;;;20.34;47.43;101812.09;4424597;32;20420;-68
2021/10/13 00:04:17;;;;;;;11.00;2.55;;;;;;;20.39;47.40;101816.37;4425973;32;20052;-68
2021/10/13 00:06:43;;;;;;;14.93;2.95;;;;;;;20.11;48.18;101821.34;4423956;32;20062;-68
2021/10/13 00:09:10;;;;;;;10.98;2.40;;;;;;;20.02;48.38;101826.25;4426783;32;20138;-68
2021/10/13 00:11:37;;;;;;;12.48;2.20;;;;;;;20.01;48.25;101816.13;4425614;32;20442;-68
2021/10/13 00:14:04;;;;;;;9.95;2.58;;;;;;;19.96;48.51;101813.88;4424836;32;20481;-68
2021/10/13 00:16:31;;;;;;;13.05;2.67;;;;;;;19.75;49.08;101822.16;4426595;32;20079;-68
2021/10/13 00:18:57;;;;;;;13.57;3.00;;;;;;;19.62;49.16;101826.44;4426546;32;20438;-68
2021/10/13 00:21:23;;;;;;;12.07;3.75;;;;;;;19.39;49.59;101818.50;4425721;32;20093;-68
2021/10/13 00:23:49;;;;;;;15.05;3.03;;;;;;;19.40;49.69;101820.06;4425852;32;20505;-68
2021/10/13 00:26:15;;;;;;;7.45;2.97;;;;;;;19.30;50.08;101824.19;4421202;32;20042;-68
2021/10/13 00:28:40;;;;;;;17.12;3.05;;;;;;;19.36;49.76;101823.06;4425491;32;20123;-68
2021/10/13 00:31:08;;;;;;;10.75;2.87;;;;;;;19.38;49.93;101820.56;4425056;32;20069;-68
2021/10/13 00:33:34;;;;;;;11.68;2.60;;;;;;;19.52;49.78;101816.28;4424328;32;20072;-68
2021/10/13 00:36:00;;;;;;;9.02;3.47;;;;;;;19.29;49.78;101809.13;4427410;32;20473;-68
2021/10/13 00:38:26;;;;;;;12.02;3.83;;;;;;;19.26;49.68;101814.94;4426684;32;20444;-68
2021/10/13 00:40:52;;;;;;;9.55;3.58;;;;;;;19.23;49.82;101819.53;4426350;32;20079;-68
2021/10/13 00:43:17;;;;;;;8.68;3.42;;;;;;;19.25;49.80;101811.31;4423423;32;20069;-68
2021/10/13 00:45:43;;;;;;;8.82;3.72;;;;;;;19.19;49.93;101810.34;4426262;32;20061;-68
2021/10/13 00:48:09;;;;;;;15.02;3.53;;;;;;;19.16;50.01;101813.34;4427335;32;20064;-68
2021/10/13 00:50:35;;;;;;;15.98;4.12;;;;;;;19.14;50.06;101807.28;4428762;32;20451;-68
2021/10/13 00:53:01;;;;;;;13.65;4.20;;;;;;;19.10;50.24;101813.16;4420169;32;20367;-68
2021/10/13 00:55:30;;;;;;;11.10;4.35;;;;;;;18.98;50.47;101807.56;4424593;32;20085;-68
2021/10/13 00:57:56;;;;;;;12.00;5.10;;;;;;;19.01;50.41;101809.50;4424444;32;20095;-68
2021/10/13 01:00:23;;;;;;;13.05;4.62;;;;;;;19.09;50.24;101813.66;4426075;32;20505;-68
2021/10/13 01:03:02;;;;;;;13.40;4.68;;;;;;;19.27;50.00;101796.59;4426289;32;20033;-68
2021/10/13 01:08:20;;;;;;;11.75;5.32;;;;;;;19.91;48.66;101820.25;3954161;32;15725474;-68
2021/10/13 01:16:52;;;;;;;18.37;5.28;;;;;;;20.17;47.91;101804.34;3985058;32;15023490;-68
2021/10/13 01:25:04;;;;;;;21.50;7.87;;;;;;;20.30;47.59;101802.91;3983565;32;15026578;-69
2021/10/13 01:30:36;;;;;;;22.37;7.57;;;;;;;20.01;47.59;101805.47;3981661;32;15025664;-68
2021/10/13 01:33:08;;;;;;;15.90;6.37;;;;;;;20.01;48.13;101799.78;4437205;32;20037;-68
2021/10/13 01:35:42;;;;;;;18.37;7.00;;;;;;;20.06;47.92;101799.09;4437525;32;20089;-68
2021/10/13 01:38:14;;;;;;;18.33;7.12;;;;;;;20.03;47.97;101811.50;4436219;32;20021;-68
2021/10/13 01:40:40;;;;;;;16.55;6.87;;;;;;;20.11;47.40;101807.06;4436938;32;20160;-68
2021/10/13 01:43:06;;;;;;;17.83;8.52;;;;;;;20.00;48.12;101788.81;4437266;32;20029;-69
2021/10/13 01:45:33;;;;;;;27.25;9.93;;;;;;;19.97;47.93;101793.41;4436559;32;20428;-68
2021/10/13 01:48:02;;;;;;;20.25;9.82;;;;;;;20.16;47.67;101800.72;4436168;32;20089;-68
2021/10/13 01:50:28;;;;;;;26.83;10.15;;;;;;;20.22;47.72;101783.72;4435989;32;20037;-69
2021/10/13 01:52:56;;;;;;;26.77;10.35;;;;;;;20.13;47.78;101789.44;4434941;32;20077;-69
2021/10/13 01:55:25;;;;;;;25.00;9.70;;;;;;;20.24;47.78;101776.25;4438226;32;20457;-69
2021/10/13 01:57:54;;;;;;;23.60;10.48;;;;;;;20.14;47.82;101774.69;4438108;32;20988;-69
2021/10/13 02:00:22;;;;;;;35.08;13.15;;;;;;;20.08;47.84;101768.00;4438102;32;20093;-69
2021/10/13 02:02:51;;;;;;;26.92;11.43;;;;;;;20.03;47.91;101768.63;4438795;32;20058;-69
2021/10/13 02:05:18;;;;;;;33.20;11.57;;;;;;;20.03;48.16;101774.34;4438960;32;20064;-69
2021/10/13 02:07:46;;;;;;;31.30;11.50;;;;;;;19.80;48.39;101772.94;4439383;32;20167;-69
2021/10/13 02:10:13;;;;;;;30.60;11.45;;;;;;;19.95;48.36;101770.25;4435078;32;20100;-69
2021/10/13 02:12:42;;;;;;;35.42;11.45;;;;;;;19.86;48.81;101772.31;4435792;32;20386;-69
2021/10/13 02:15:10;;;;;;;33.90;11.82;;;;;;;20.01;48.51;101767.53;4436314;32;20522;-69
2021/10/13 02:17:39;;;;;;;28.55;12.00;;;;;;;19.92;48.62;101768.34;4436673;32;20037;-69
2021/10/13 02:20:06;;;;;;;30.77;11.57;;;;;;;20.07;48.09;101768.47;4434710;32;20079;-69
2021/10/13 02:22:33;;;;;;;29.92;11.45;;;;;;;19.98;48.47;101766.44;4436426;32;20061;-69
2021/10/13 02:24:58;;;;;;;32.20;12.68;;;;;;;20.07;48.21;101760.69;4436594;32;20025;-69
2021/10/13 02:30:04;;;;;;;34.40;12.50;;;;;;;20.02;48.38;101766.25;3981508;32;15036367;-69
2021/10/13 02:32:29;;;;;;;41.72;13.68;;;;;;;20.02;48.38;101766.25;4433684;32;20102;-69
2021/10/13 02:34:57;;;;;;;35.05;13.98;;;;;;;19.61;49.02;101759.94;4433341;32;20144;-69
2021/10/13 02:37:23;;;;;;;33.03;13.38;;;;;;;19.83;48.56;101757.69;4433226;32;20084;-69
2021/10/13 02:39:48;;;;;;;32.42;13.70;;;;;;;19.53;49.19;101758.69;4432138;32;20442;-69
2021/10/13 02:42:14;;;;;;;32.58;13.60;;;;;;;19.53;49.13;101767.28;4434375;32;20069;-69
2021/10/13 02:44:41;;;;;;;33.10;14.07;;;;;;;19.48;49.28;101764.22;4434258;32;20111;-69
2021/10/13 02:47:13;;;;;;;34.97;13.98;;;;;;;19.45;49.41;101765.19;4431180;32;20069;-69
2021/10/13 02:54:56;;;;;;;33.05;13.02;;;;;;;19.83;48.81;101773.28;3983435;32;15023208;-69
2021/10/13 02:57:32;;;;;;;36.63;14.05;;;;;;;19.83;48.81;101773.28;4434343;32;20029;-69
2021/10/13 03:00:03;;;;;;;30.90;13.45;;;;;;;19.42;49.42;101761.22;4434248;32;20157;-69
2021/10/13 03:02:33;;;;;;;34.38;14.23;;;;;;;19.33;49.37;101766.94;4432410;32;20077;-69
2021/10/13 03:05:01;;;;;;;34.50;14.73;;;;;;;19.29;49.62;101754.09;4432590;32;20134;-69
2021/10/13 03:07:36;;;;;;;32.75;14.20;;;;;;;19.19;49.83;101763.88;4434850;32;20060;-69
2021/10/13 03:10:04;;;;;;;35.78;13.80;;;;;;;19.19;49.60;101767.53;4434204;32;20068;-69
2021/10/13 03:12:39;;;;;;;31.30;13.35;;;;;;;19.07;50.01;101773.38;4434328;32;20022;-69
2021/10/13 03:15:07;;;;;;;31.67;13.93;;;;;;;19.10;49.73;101769.56;4432931;32;20107;-69
2021/10/13 03:17:35;;;;;;;29.20;13.75;;;;;;;18.99;50.13;101772.87;4430212;32;20394;-69
2021/10/13 03:20:02;;;;;;;33.72;13.73;;;;;;;18.91;50.08;101777.31;4433993;32;20084;-69
2021/10/13 03:22:29;;;;;;;36.17;14.02;;;;;;;19.05;50.07;101778.78;4432456;32;20073;-69
2021/10/13 03:24:54;;;;;;;30.17;13.68;;;;;;;19.11;50.24;101771.12;4428361;32;20033;-69
2021/10/13 03:27:25;;;;;;;32.55;13.70;;;;;;;19.06;50.22;101771.78;4434127;32;20051;-69
2021/10/13 03:29:50;;;;;;;33.13;14.52;;;;;;;19.42;49.42;101763.31;4433981;32;20037;-69
2021/10/13 03:32:18;;;;;;;30.83;13.93;;;;;;;19.38;49.29;101763.44;4433722;32;20481;-69
2021/10/13 03:34:43;;;;;;;32.90;13.90;;;;;;;19.52;48.99;101762.81;4434935;32;20080;-69
2021/10/13 03:37:09;;;;;;;28.75;13.75;;;;;;;19.53;48.58;101763.59;4431088;32;20517;-69
2021/10/13 03:39:35;;;;;;;28.73;13.32;;;;;;;19.71;48.74;101760.75;4432096;32;20143;-69
2021/10/13 03:42:02;;;;;;;31.55;13.95;;;;;;;19.77;48.41;101764.56;4430083;32;20155;-68
2021/10/13 03:44:27;;;;;;;29.83;12.90;;;;;;;20.00;47.68;101760.25;4432330;32;20063;-69
2021/10/13 03:46:53;;;;;;;31.33;13.43;;;;;;;19.91;48.26;101765.97;4435367;32;20164;-69
2021/10/13 03:49:19;;;;;;;30.45;14.00;;;;;;;19.88;48.28;101766.94;4432250;32;20030;-68
2021/10/13 03:51:44;;;;;;;31.70;13.65;;;;;;;20.13;47.88;101760.88;4432863;32;20030;-68
2021/10/13 03:54:10;;;;;;;30.80;13.43;;;;;;;20.21;47.57;101762.91;4431710;32;20450;-68
2021/10/13 03:56:36;;;;;;;28.40;12.95;;;;;;;20.26;47.48;101770.84;4432561;32;20030;-68
2021/10/13 03:59:02;;;;;;;30.45;14.23;;;;;;;20.33;47.60;101756.19;4432952;32;20091;-68
2021/10/13 04:01:27;;;;;;;32.03;14.77;;;;;;;20.15;47.90;101761.19;4432741;32;20041;-69
2021/10/13 04:03:53;;;;;;;32.78;14.07;;;;;;;20.14;47.90;101768.16;4433261;32;20112;-68
2021/10/13 04:06:19;;;;;;;36.13;14.43;;;;;;;20.05;47.92;101757.53;4422015;32;20057;-68
2021/10/13 04:08:44;;;;;;;32.80;15.00;;;;;;;20.02;47.84;101752.75;4421733;32;20666;-68
2021/10/13 04:11:10;;;;;;;34.40;16.10;;;;;;;20.01;48.06;101767.53;4422202;32;20090;-68
2021/10/13 04:13:36;;;;;;;32.40;15.27;;;;;;;20.01;48.25;101758.97;4423251;32;20069;-68
2021/10/13 04:16:02;;;;;;;30.70;13.95;;;;;;;19.91;48.59;101766.75;4424228;32;20690;-68
2021/10/13 04:18:28;;;;;;;31.48;14.77;;;;;;;19.78;48.90;101760.41;4422883;32;20031;-68
2021/10/13 04:20:53;;;;;;;43.03;16.87;;;;;;;19.79;49.09;101762.78;4421036;32;20078;-68
2021/10/13 04:23:19;;;;;;;37.08;15.75;;;;;;;19.83;49.05;101757.69;4424147;32;20048;-68
2021/10/13 04:25:45;;;;;;;36.47;16.25;;;;;;;19.91;49.01;101763.88;4422392;32;20680;-68
2021/10/13 04:28:11;;;;;;;37.55;17.48;;;;;;;20.09;48.81;101769.56;4424270;32;20056;-68
2021/10/13 04:30:37;;;;;;;34.47;15.05;;;;;;;19.95;48.61;101758.81;4424455;32;20026;-68
2021/10/13 04:33:04;;;;;;;31.30;13.98;;;;;;;20.05;48.87;101763.25;4424951;32;20038;-69
2021/10/13 04:35:30;;;;;;;30.20;14.02;;;;;;;20.28;48.35;101753.22;4419839;32;20138;-68
2021/10/13 04:37:58;;;;;;;37.45;14.50;;;;;;;20.43;48.00;101756.97;4420753;32;20034;-68
2021/10/13 04:40:24;;;;;;;32.83;14.60;;;;;;;20.43;48.26;101751.25;4422840;32;20107;-69
2021/10/13 04:42:50;;;;;;;35.33;15.55;;;;;;;20.34;47.87;101754.91;4423765;32;20092;-68
2021/10/13 04:45:16;;;;;;;31.95;14.05;;;;;;;20.34;47.80;101765.56;4421774;32;20100;-69
2021/10/13 04:47:42;;;;;;;30.50;14.02;;;;;;;20.28;48.27;101758.94;4420920;32;20030;-68
2021/10/13 04:50:08;;;;;;;37.58;14.85;;;;;;;20.33;48.34;101756.19;4423096;32;20410;-69
2021/10/13 04:52:33;;;;;;;31.45;14.82;;;;;;;20.47;48.21;101752.66;4423982;32;20501;-69
2021/10/13 04:54:59;;;;;;;33.28;14.90;;;;;;;20.49;48.21;101752.19;4421706;32;20081;-69
2021/10/13 04:57:25;;;;;;;32.80;15.73;;;;;;;20.54;48.13;101760.88;4419307;32;20069;-69
2021/10/13 04:59:54;;;;;;;38.90;16.45;;;;;;;20.66;48.11;101759.06;4422976;32;20099;-69
2021/10/13 05:02:21;;;;;;;32.70;14.68;;;;;;;20.72;47.94;101755.09;4423902;32;20044;-69
2021/10/13 05:04:46;;;;;;;32.20;15.10;;;;;;;20.64;48.06;101762.44;4420278;32;20050;-68
2021/10/13 05:07:12;;;;;;;39.90;16.10;;;;;;;20.52;48.28;101749.13;4420134;32;20091;-69
2021/10/13 05:09:37;;;;;;;42.13;16.02;;;;;;;20.36;48.28;101746.66;4422237;32;20478;-68
2021/10/13 05:12:03;;;;;;;35.88;15.65;;;;;;;20.29;48.35;101761.31;4420633;32;20666;-69
2021/10/13 05:14:29;;;;;;;38.30;15.70;;;;;;;20.35;48.77;101750.00;4421524;32;20177;-68
2021/10/13 05:16:55;;;;;;;37.03;16.02;;;;;;;20.35;48.83;101750.81;4426455;32;20456;-69
2021/10/13 05:19:20;;;;;;;34.88;15.32;;;;;;;20.29;48.57;101754.78;4419609;32;20472;-69
2021/10/13 05:21:46;;;;;;;34.47;15.20;;;;;;;20.43;48.79;101752.03;4421590;32;21157;-69
2021/10/13 05:24:11;;;;;;;34.85;15.73;;;;;;;20.50;48.89;101751.69;4423377;32;20368;-69
2021/10/13 05:26:38;;;;;;;36.05;16.52;;;;;;;20.41;48.60;101745.22;4420471;32;20034;-68
2021/10/13 05:29:03;;;;;;;39.92;16.42;;;;;;;20.54;48.76;101743.72;4418175;32;20056;-68
2021/10/13 05:31:29;;;;;;;34.97;15.70;;;;;;;20.61;48.48;101740.50;4420460;32;20100;-68
2021/10/13 05:33:55;;;;;;;36.08;15.30;;;;;;;20.71;48.52;101742.03;4418089;32;20631;-69
2021/10/13 05:36:21;;;;;;;37.30;16.25;;;;;;;20.83;48.31;101743.09;4422974;32;20130;-69
2021/10/13 05:38:48;;;;;;;36.22;15.50;;;;;;;20.84;48.26;101733.25;4421081;32;20107;-68
2021/10/13 05:41:14;;;;;;;38.28;15.13;;;;;;;20.88;48.34;101743.22;4420400;32;20069;-69
2021/10/13 05:43:40;;;;;;;35.75;16.20;;;;;;;20.84;48.42;101739.75;4420493;32;20427;-69
2021/10/13 05:46:05;;;;;;;30.67;14.90;;;;;;;20.90;48.37;101740.66;4422121;32;20114;-69
2021/10/13 05:48:31;;;;;;;36.53;15.68;;;;;;;20.90;48.34;101732.06;4422283;32;20116;-69
2021/10/13 05:50:57;;;;;;;33.47;15.20;;;;;;;20.79;48.63;101734.69;4420986;32;20068;-69
2021/10/13 05:53:22;;;;;;;41.20;15.48;;;;;;;20.84;48.61;101738.97;4421100;32;20426;-69
2021/10/13 05:55:48;;;;;;;33.88;15.15;;;;;;;20.94;48.33;101744.19;4417505;32;20060;-68
2021/10/13 05:58:16;;;;;;;37.28;15.77;;;;;;;20.95;48.47;101742.88;4423031;32;20424;-69
2021/10/13 06:00:41;;;;;;;35.75;15.50;;;;;;;20.87;48.56;101738.78;4423677;32;20034;-69
2021/10/13 06:03:07;;;;;;;32.72;15.68;;;;;;;20.76;48.62;101747.09;4422329;32;20575;-69
2021/10/13 06:05:33;;;;;;;33.50;16.20;;;;;;;21.04;48.30;101748.56;4419664;32;20111;-69
2021/10/13 06:07:58;;;;;;;36.50;15.80;;;;;;;21.05;48.12;101738.69;4421484;32;20071;-69
2021/10/13 06:10:25;;;;;;;37.53;16.42;;;;;;;21.13;47.96;101739.91;4418554;32;20415;-69
2021/10/13 06:12:50;;;;;;;34.00;15.00;;;;;;;21.26;47.43;101737.56;4422463;32;20071;-68
2021/10/13 06:15:19;;;;;;;35.28;16.23;;;;;;;21.14;47.98;101741.47;4420608;32;20106;-69
2021/10/13 06:17:44;;;;;;;39.10;18.12;;;;;;;21.05;48.13;101737.91;4423081;32;20082;-69
2021/10/13 06:20:10;;;;;;;64.20;28.55;;;;;;;21.05;48.22;101740.78;4419138;32;20093;-69
2021/10/13 06:22:37;;;;;;;41.83;18.00;;;;;;;21.03;48.18;101731.87;4421981;32;20041;-69
2021/10/13 06:25:05;;;;;;;40.17;17.80;;;;;;;21.19;47.68;101735.09;4421882;32;20081;-69
2021/10/13 06:27:31;;;;;;;42.58;17.10;;;;;;;21.22;47.66;101731.25;4419852;32;20401;-69
2021/10/13 06:29:57;;;;;;;41.13;17.73;;;;;;;20.88;48.32;101737.50;4422641;32;20074;-69
2021/10/13 06:32:22;;;;;;;35.28;17.12;;;;;;;20.74;48.75;101731.72;4418708;32;20497;-68
2021/10/13 06:34:49;;;;;;;37.08;18.15;;;;;;;20.72;48.68;101728.53;4418468;32;20049;-68
2021/10/13 06:37:14;;;;;;;35.30;17.15;;;;;;;20.78;48.94;101744.56;4417155;32;20081;-68
2021/10/13 06:39:40;;;;;;;39.63;17.17;;;;;;;20.89;48.84;101747.66;4418885;32;20089;-69
2021/10/13 06:42:06;;;;;;;38.72;16.70;;;;;;;20.93;48.77;101741.78;4418961;32;20407;-68
2021/10/13 06:44:32;;;;;;;34.90;16.92;;;;;;;21.05;48.70;101750.12;4419475;32;20401;-68
2021/10/13 06:46:58;;;;;;;32.45;16.20;;;;;;;20.94;48.72;101744.19;4413849;32;20078;-68
2021/10/13 06:49:24;;;;;;;34.13;16.08;;;;;;;21.04;48.58;101751.41;4415940;32;20097;-69
2021/10/13 06:51:49;;;;;;;32.75;14.70;;;;;;;21.00;49.01;101756.53;4410816;32;20152;-69
2021/10/13 06:54:16;;;;;;;31.35;14.93;;;;;;;21.20;48.54;101744.50;4408753;32;20084;-69
2021/10/13 06:56:41;;;;;;;30.55;15.02;;;;;;;21.22;48.63;101744.78;4412175;32;20115;-69
2021/10/13 06:59:08;;;;;;;32.20;15.23;;;;;;;21.28;48.42;101754.28;4410494;32;20076;-69
2021/10/13 07:01:33;;;;;;;27.05;13.32;;;;;;;21.29;48.40;101744.41;4410049;32;20632;-69
2021/10/13 07:04:00;;;;;;;30.15;13.98;;;;;;;21.35;48.09;101739.56;4411352;32;20080;-69
2021/10/13 07:06:26;;;;;;;29.45;13.70;;;;;;;21.29;48.37;101744.41;4407292;32;20153;-70
2021/10/13 07:08:52;;;;;;;27.17;13.98;;;;;;;21.28;48.48;101749.34;4406056;32;20068;-69
2021/10/13 07:11:21;;;;;;;28.35;12.77;;;;;;;21.29;48.83;101745.19;4411830;32;20695;-69
2021/10/13 07:13:47;;;;;;;32.20;15.90;;;;;;;21.21;48.94;101748.94;4412499;32;20057;-69
2021/10/13 07:16:13;;;;;;;25.27;12.40;;;;;;;21.32;48.92;101744.22;4410970;32;20118;-69
2021/10/13 07:18:39;;;;;;;26.10;12.20;;;;;;;21.32;49.14;101752.00;4408598;32;20069;-69
2021/10/13 07:21:05;;;;;;;17.12;8.10;;;;;;;21.38;48.90;101755.78;4408705;32;20041;-69
2021/10/13 07:23:31;;;;;;;20.02;9.30;;;;;;;21.72;48.34;101758.03;4411286;32;20076;-69
2021/10/13 07:25:57;;;;;;;12.23;6.72;;;;;;;21.84;48.01;101767.69;4406448;32;20491;-69
2021/10/13 07:28:25;;;;;;;12.60;7.20;;;;;;;22.12;47.44;101769.75;4409738;32;21269;-69
2021/10/13 07:30:52;;;;;;;23.50;10.32;;;;;;;22.40;47.05;101771.03;4409040;32;20120;-69
2021/10/13 07:33:19;;;;;;;21.33;10.57;;;;;;;22.58;46.85;101770.84;4406891;32;20108;-69
2021/10/13 07:35:45;;;;;;;8.77;4.95;;;;;;;22.74;46.33;101761.69;4410526;32;20139;-69
2021/10/13 07:38:12;;;;;;;10.02;5.03;;;;;;;22.50;46.35;101758.22;4412938;32;20081;-70
2021/10/13 07:40:38;;;;;;;7.70;3.85;;;;;;;22.75;45.90;101763.31;4407653;32;21055;-69
2021/10/13 07:43:04;;;;;;;9.35;4.93;;;;;;;22.66;45.58;101757.69;4413486;32;20061;-70
2021/10/13 07:45:30;;;;;;;12.13;5.07;;;;;;;22.85;45.51;101761.09;4411132;32;20442;-69
2021/10/13 07:47:55;;;;;;;4.87;2.67;;;;;;;22.99;45.69;101761.06;4410874;32;20037;-70
2021/10/13 07:50:21;;;;;;;5.25;2.58;;;;;;;22.85;45.20;101766.81;4415089;32;20091;-70
2021/10/13 07:52:47;;;;;;;5.10;2.62;;;;;;;23.01;45.11;101774.91;4408353;32;20495;-70
2021/10/13 07:55:13;;;;;;;5.90;2.50;;;;;;;23.14;44.62;101769.59;4410968;32;20100;-71
2021/10/13 07:57:39;;;;;;;3.28;1.50;;;;;;;23.53;43.55;101765.97;4413591;32;20116;-70
2021/10/13 08:00:06;;;;;;;3.20;1.60;;;;;;;23.71;43.09;101764.09;4416827;32;20097;-69
2021/10/13 08:02:32;;;;;;;2.37;1.40;;;;;;;23.59;43.55;101763.16;4412065;32;20276;-71
2021/10/13 08:04:58;;;;;;;3.62;1.60;;;;;;;23.92;42.98;101762.72;4418063;32;20073;-70
2021/10/13 08:07:23;;;;;;;3.17;1.40;;;;;;;24.20;42.25;101760.97;4414286;32;20139;-69
2021/10/13 08:09:49;;;;;;;2.12;1.37;;;;;;;24.36;41.89;101757.44;4413563;32;20085;-69
2021/10/13 08:12:15;;;;;;;3.08;1.45;;;;;;;24.62;41.46;101761.84;4413308;32;20067;-69
2021/10/13 08:14:40;;;;;;;3.67;1.90;;;;;;;24.87;40.99;101757.31;4414946;32;20115;-69
2021/10/13 08:17:09;;;;;;;4.10;1.30;;;;;;;25.35;40.37;101756.03;4415083;32;20131;-69
2021/10/13 08:19:35;;;;;;;5.62;1.48;;;;;;;25.66;39.76;101754.31;4417844;32;20119;-69
2021/10/13 08:22:01;;;;;;;4.70;1.92;;;;;;;26.26;38.48;101757.34;4411905;32;20431;-69
2021/10/13 08:24:26;;;;;;;4.43;1.08;;;;;;;26.46;38.21;101760.00;4412188;32;20173;-69
2021/10/13 08:26:52;;;;;;;1.62;0.95;;;;;;;26.83;36.70;101756.81;4413865;32;20515;-69
2021/10/13 08:29:18;;;;;;;2.55;1.10;;;;;;;27.12;36.13;101774.34;4411136;32;20565;-70
2021/10/13 08:31:44;;;;;;;1.17;0.73;;;;;;;27.45;35.84;101769.81;4413469;32;20171;-70
2021/10/13 08:34:09;;;;;;;1.98;0.80;;;;;;;27.61;35.29;101771.84;4409067;32;20100;-72
2021/10/13 08:36:35;;;;;;;0.45;0.43;;;;;;;27.78;35.22;101779.13;4410792;32;20073;-72
2021/10/13 08:39:01;;;;;;;6.68;0.70;;;;;;;27.92;35.11;101783.78;4414188;32;20120;-71
2021/10/13 08:41:27;;;;;;;2.33;0.65;;;;;;;27.04;36.50;101782.00;4415114;32;20496;-71
2021/10/13 08:43:53;;;;;;;0.95;0.40;;;;;;;26.62;36.69;101779.44;4412963;32;20074;-71
2021/10/13 08:46:19;;;;;;;1.40;0.62;;;;;;;27.04;36.61;101789.87;4416230;32;20077;-71
2021/10/13 08:48:45;;;;;;;1.40;0.57;;;;;;;26.61;37.28;101789.37;4412757;32;20168;-70
2021/10/13 08:51:11;;;;;;;0.40;0.30;;;;;;;26.24;37.96;101782.28;4415917;32;20093;-71
2021/10/13 08:53:36;;;;;;;1.35;0.70;;;;;;;25.52;38.99;101787.81;4412608;32;20413;-70
2021/10/13 08:56:02;;;;;;;3.60;0.62;;;;;;;25.36;39.75;101785.66;4411726;32;20033;-72
2021/10/13 08:58:29;;;;;;;1.08;0.50;;;;;;;25.62;39.46;101776.88;4412516;32;20081;-71
2021/10/13 09:01:15;;;;;;;6.50;0.90;;;;;;;25.70;39.10;101778.72;4414626;32;20162;-71
2021/10/13 09:03:44;;;;;;;2.45;0.98;;;;;;;25.70;39.23;101780.81;4414267;32;20045;-71
2021/10/13 09:08:54;;;;;;;0.98;0.32;;;;;;;26.39;38.07;101769.19;3962945;32;15150552;-71
2021/10/13 09:22:15;;;;;;;1.50;0.40;;;;;;;28.03;35.25;101766.34;3971097;32;15023528;-70
2021/10/13 09:24:44;;;;;;;3.83;0.60;;;;;;;28.03;35.25;101766.34;4419893;32;20141;-71
2021/10/13 09:27:30;;;;;;;1.70;0.70;;;;;;;27.61;35.74;101766.06;4419325;32;20046;-70
2021/10/13 09:30:03;;;;;;;1.85;0.85;;;;;;;27.69;35.10;101764.97;4418530;32;20451;-69
2021/10/13 09:32:28;;;;;;;0.70;0.40;;;;;;;28.23;34.72;101763.06;4416510;32;20100;-70
2021/10/13 09:34:57;;;;;;;18.08;4.90;;;;;;;28.50;34.49;101770.00;4416172;32;20114;-69
2021/10/13 09:37:23;;;;;;;2.75;1.37;;;;;;;28.45;34.30;101768.72;4416635;32;20062;-69
2021/10/13 09:39:59;;;;;;;3.90;1.35;;;;;;;28.24;34.29;101772.53;4417896;32;20042;-69
2021/10/13 09:42:25;;;;;;;2.20;1.10;;;;;;;28.93;33.64;101765.87;4416499;32;20049;-70
2021/10/13 09:44:55;;;;;;;2.65;1.20;;;;;;;29.26;33.55;101775.56;4417803;32;20025;-70
2021/10/13 09:47:29;;;;;;;1.30;0.90;;;;;;;29.55;32.25;101769.66;4416696;32;20066;-70
2021/10/13 09:49:55;;;;;;;1.83;0.90;;;;;;;29.90;31.93;101772.37;4416485;32;21482;-70
2021/10/13 09:52:27;;;;;;;2.95;0.80;;;;;;;29.99;32.23;101780.69;4417972;32;20185;-70
2021/10/13 09:57:42;;;;;;;5.65;0.73;;;;;;;29.19;32.84;101782.75;3964230;32;15025750;-70
2021/10/13 10:00:11;;;;;;;8.45;1.20;;;;;;;30.10;31.44;101771.00;4410225;32;20142;-69
2021/10/13 10:05:19;;;;;;;2.15;1.10;;;;;;;30.45;30.69;101782.34;3954790;32;15022913;-70
2021/10/13 10:08:04;;;;;;;1.67;0.68;;;;;;;30.45;30.69;101782.34;4407139;32;21136;-70
2021/10/13 10:10:30;;;;;;;2.80;1.30;;;;;;;29.33;31.98;101774.94;4408858;32;20434;-71
2021/10/13 10:23:55;;;;;;;1.65;1.25;;;;;;;28.39;33.42;101767.94;3961566;32;15016821;-70
2021/10/13 10:29:11;;;;;;;2.85;1.45;;;;;;;29.33;32.58;101764.16;3972777;32;15029139;-69
2021/10/13 10:31:39;;;;;;;1.95;1.42;;;;;;;29.33;32.58;101764.16;4428178;32;20089;-70
2021/10/13 10:39:20;;;;;;;3.15;1.90;;;;;;;28.67;33.53;101776.41;3973958;32;15028191;-71
2021/10/13 10:47:18;;;;;;;4.75;1.90;;;;;;;27.84;35.41;101773.28;3981252;31;15014334;-71
2021/10/13 10:52:22;;;;;;;2.72;2.00;;;;;;;27.05;36.74;101774.91;3967346;32;15026921;-70
2021/10/13 10:54:53;;;;;;;3.62;1.90;;;;;;;27.05;36.74;101774.91;4420137;32;20100;-70
2021/10/13 10:57:38;;;;;;;8.13;1.90;;;;;;;26.36;38.30;101766.56;4419832;32;20494;-70
2021/10/13 11:00:08;;;;;;;5.93;1.85;;;;;;;25.98;38.49;101758.66;4420411;32;20065;-70
2021/10/13 11:02:35;;;;;;;4.53;1.55;;;;;;;26.45;38.34;101767.06;4422650;32;20095;-70
2021/10/13 11:07:42;;;;;;;2.70;1.08;;;;;;;27.77;35.86;101753.59;3975113;32;15028857;-70
2021/10/13 11:10:10;;;;;;;3.15;0.90;;;;;;;27.77;35.86;101753.59;4430982;32;20521;-70
2021/10/13 11:15:31;;;;;;;4.00;0.60;;;;;;;28.20;35.13;101758.34;3979736;31;15019643;-69
2021/10/13 11:18:11;;;;;;;1.60;0.60;;;;;;;28.22;34.56;101741.22;4430114;32;20467;-69
2021/10/13 11:20:36;;;;;;;2.67;0.52;;;;;;;29.05;33.56;101751.28;4431824;32;20064;-70
2021/10/13 11:23:04;;;;;;;2.90;0.70;;;;;;;29.34;33.27;101753.31;4430614;32;20130;-70
2021/10/13 11:25:32;;;;;;;3.78;0.65;;;;;;;29.55;33.49;101768.87;4431113;32;20103;-70
2021/10/13 11:33:15;;;;;;;1.20;0.40;;;;;;;29.59;32.70;101780.94;3984760;32;15028164;-71
2021/10/13 11:35:40;;;;;;;2.05;0.60;;;;;;;29.59;32.70;101780.94;4442367;32;20060;-71
2021/10/13 11:38:07;;;;;;;1.10;0.50;;;;;;;29.60;32.44;101773.81;4442173;32;20448;-71
2021/10/13 11:40:35;;;;;;;0.57;0.30;;;;;;;29.49;32.10;101777.66;4440590;32;20433;-71
2021/10/13 11:43:11;;;;;;;0.55;0.35;;;;;;;28.93;33.07;101770.91;4441126;32;20553;-71
2021/10/13 11:45:50;;;;;;;2.08;0.43;;;;;;;29.10;33.16;101773.63;4436914;32;20119;-72
2021/10/13 11:48:26;;;;;;;3.03;0.45;;;;;;;29.38;32.95;101768.28;4439936;32;20111;-72
2021/10/13 11:50:53;;;;;;;1.05;0.60;;;;;;;29.29;32.68;101768.69;4439615;32;20086;-72
2021/10/13 11:53:21;;;;;;;4.50;0.80;;;;;;;28.96;33.46;101764.78;4436305;32;20072;-72
2021/10/13 11:55:47;;;;;;;5.22;0.98;;;;;;;28.83;33.61;101775.44;4436883;32;21223;-71
2021/10/13 11:58:24;;;;;;;2.17;0.70;;;;;;;28.64;33.62;101778.28;4440856;32;20456;-71
2021/10/13 12:00:50;;;;;;;6.03;1.37;;;;;;;29.01;33.29;101763.16;4440961;32;20037;-70
2021/10/13 12:03:15;;;;;;;1.67;0.70;;;;;;;28.44;34.22;101761.31;4436000;32;20112;-71
2021/10/13 12:05:44;;;;;;;2.05;0.73;;;;;;;28.47;33.88;101760.25;4437369;32;20085;-70
2021/10/13 12:08:14;;;;;;;1.35;0.50;;;;;;;27.93;34.65;101762.22;4439287;32;20118;-70
2021/10/13 12:10:49;;;;;;;3.17;0.90;;;;;;;28.00;34.27;101764.53;4439240;32;20073;-71
2021/10/13 12:13:26;;;;;;;1.52;1.00;;;;;;;27.76;34.58;101754.94;4425702;32;20072;-71
2021/10/13 12:15:56;;;;;;;0.98;0.77;;;;;;;27.96;34.47;101763.25;4424715;32;20065;-71
2021/10/13 12:18:25;;;;;;;3.92;0.85;;;;;;;27.74;34.66;101760.47;4439871;32;20041;-70
2021/10/13 12:21:14;;;;;;;1.85;0.62;;;;;;;27.76;34.98;101761.50;4442066;32;20403;-70
2021/10/13 12:26:19;;;;;;;3.80;0.70;;;;;;;29.26;32.62;101758.16;3975767;32;15025445;-70
2021/10/13 12:28:50;;;;;;;1.90;0.80;;;;;;;29.26;32.62;101758.16;4426483;32;20713;-72
2021/10/13 12:31:33;;;;;;;1.92;0.70;;;;;;;29.30;32.17;101764.44;4423670;32;20486;-70
2021/10/13 12:36:38;;;;;;;8.82;1.10;;;;;;;29.43;32.89;101770.34;3945875;32;15726557;-72
2021/10/13 12:41:43;;;;;;;2.30;0.93;;;;;;;28.91;33.75;101790.94;3977602;32;15023972;-70
2021/10/13 12:44:28;;;;;;;5.95;1.50;;;;;;;28.91;33.75;101790.94;4426807;32;20123;-72
2021/10/13 12:46:57;;;;;;;3.55;1.40;;;;;;;28.49;34.18;101780.78;4430850;32;20477;-70